sensor_id;sensor_type;location;lat;lon;timestamp;temperature;humidity
22676;DHT22;12521;43.310;21.876;2023-04-19T00:02:36;10.8;96.0
22676;DHT22;12521;43.310;21.876;2023-04-19T00:07:13;10.8;96.0
22676;DHT22;12521;43.310;21.876;2023-04-19T00:11:51;10.8;96.0
22676;DHT22;12521;43.310;21.876;2023-04-19T00:16:28;10.9;96.0
22676;DHT22;12521;43.310;21.876;2023-04-19T00:21:05;10.9;96.0
22676;DHT22;12521;43.310;21.876;2023-04-19T00:25:45;10.9;96.0
22676;DHT22;12521;43.310;21.876;2023-04-19T00:30:25;10.9;96.0
22676;DHT22;12521;43.310;21.876;2023-04-19T00:35:02;10.9;96.0
22676;DHT22;12521;43.310;21.876;2023-04-19T00:39:41;10.9;96.0
22676;DHT22;12521;43.310;21.876;2023-04-19T00:44:19;10.9;96.0
22676;DHT22;12521;43.310;21.876;2023-04-19T00:48:56;10.9;96.0
22676;DHT22;12521;43.310;21.876;2023-04-19T00:53:37;10.9;96.0
22676;DHT22;12521;43.310;21.876;2023-04-19T00:58:17;10.9;96.0
22676;DHT22;12521;43.310;21.876;2023-04-19T01:02:54;10.9;96.0
22676;DHT22;12521;43.310;21.876;2023-04-19T01:07:33;10.8;96.0
22676;DHT22;12521;43.310;21.876;2023-04-19T01:12:10;10.8;96.0
22676;DHT22;12521;43.310;21.876;2023-04-19T01:16:47;10.8;96.0
22676;DHT22;12521;43.310;21.876;2023-04-19T01:21:24;10.8;96.0
22676;DHT22;12521;43.310;21.876;2023-04-19T01:26:02;10.8;96.0
22676;DHT22;12521;43.310;21.876;2023-04-19T01:30:40;10.8;96.0
22676;DHT22;12521;43.310;21.876;2023-04-19T01:35:17;10.8;96.0
22676;DHT22;12521;43.310;21.876;2023-04-19T01:39:53;10.8;96.0
22676;DHT22;12521;43.310;21.876;2023-04-19T01:44:30;10.8;96.0
22676;DHT22;12521;43.310;21.876;2023-04-19T01:49:07;10.7;96.0
22676;DHT22;12521;43.310;21.876;2023-04-19T01:53:43;10.7;96.0
22676;DHT22;12521;43.310;21.876;2023-04-19T01:58:20;10.8;96.0
22676;DHT22;12521;43.310;21.876;2023-04-19T02:02:57;10.8;96.0
22676;DHT22;12521;43.310;21.876;2023-04-19T02:07:34;10.8;96.0
22676;DHT22;12521;43.310;21.876;2023-04-19T02:12:11;10.8;96.0
22676;DHT22;12521;43.310;21.876;2023-04-19T02:16:47;10.8;96.0
22676;DHT22;12521;43.310;21.876;2023-04-19T02:21:24;10.8;96.0
22676;DHT22;12521;43.310;21.876;2023-04-19T02:26:01;10.7;96.0
22676;DHT22;12521;43.310;21.876;2023-04-19T02:30:37;10.7;96.0
22676;DHT22;12521;43.310;21.876;2023-04-19T02:35:14;10.7;96.0
22676;DHT22;12521;43.310;21.876;2023-04-19T02:39:51;10.7;96.0
22676;DHT22;12521;43.310;21.876;2023-04-19T02:44:27;10.7;96.0
22676;DHT22;12521;43.310;21.876;2023-04-19T02:49:04;10.7;96.0
22676;DHT22;12521;43.310;21.876;2023-04-19T02:53:40;10.7;96.0
22676;DHT22;12521;43.310;21.876;2023-04-19T02:58:17;10.8;96.0
22676;DHT22;12521;43.310;21.876;2023-04-19T03:02:55;10.8;96.0
22676;DHT22;12521;43.310;21.876;2023-04-19T03:07:33;10.8;96.0
22676;DHT22;12521;43.310;21.876;2023-04-19T03:12:10;10.8;96.0
22676;DHT22;12521;43.310;21.876;2023-04-19T03:16:47;10.9;96.0
22676;DHT22;12521;43.310;21.876;2023-04-19T03:21:25;10.9;96.0
22676;DHT22;12521;43.310;21.876;2023-04-19T03:26:02;10.9;96.0
22676;DHT22;12521;43.310;21.876;2023-04-19T03:30:39;10.9;96.0
22676;DHT22;12521;43.310;21.876;2023-04-19T03:35:16;10.9;96.0
22676;DHT22;12521;43.310;21.876;2023-04-19T03:39:53;11.0;96.0
22676;DHT22;12521;43.310;21.876;2023-04-19T03:44:32;11.0;96.0
22676;DHT22;12521;43.310;21.876;2023-04-19T03:49:09;11.0;96.0
22676;DHT22;12521;43.310;21.876;2023-04-19T03:53:45;11.0;96.0
22676;DHT22;12521;43.310;21.876;2023-04-19T03:58:21;11.0;96.0
22676;DHT22;12521;43.310;21.876;2023-04-19T04:02:58;11.0;96.0
22676;DHT22;12521;43.310;21.876;2023-04-19T04:07:34;11.0;96.0
22676;DHT22;12521;43.310;21.876;2023-04-19T04:12:10;11.0;96.0
22676;DHT22;12521;43.310;21.876;2023-04-19T04:16:46;11.0;96.0
22676;DHT22;12521;43.310;21.876;2023-04-19T04:21:23;11.0;96.0
22676;DHT22;12521;43.310;21.876;2023-04-19T04:26:00;11.0;96.0
22676;DHT22;12521;43.310;21.876;2023-04-19T04:30:36;11.0;96.0
22676;DHT22;12521;43.310;21.876;2023-04-19T04:35:13;11.0;96.0
22676;DHT22;12521;43.310;21.876;2023-04-19T04:39:49;11.0;96.0
22676;DHT22;12521;43.310;21.876;2023-04-19T04:44:25;11.0;96.0
22676;DHT22;12521;43.310;21.876;2023-04-19T04:49:02;11.0;96.0
22676;DHT22;12521;43.310;21.876;2023-04-19T04:53:38;11.0;96.0
22676;DHT22;12521;43.310;21.876;2023-04-19T04:58:14;11.0;96.0
22676;DHT22;12521;43.310;21.876;2023-04-19T05:02:51;11.0;96.0
22676;DHT22;12521;43.310;21.876;2023-04-19T05:07:27;11.0;96.0
22676;DHT22;12521;43.310;21.876;2023-04-19T05:12:04;11.0;96.0
22676;DHT22;12521;43.310;21.876;2023-04-19T05:16:41;11.0;96.0
22676;DHT22;12521;43.310;21.876;2023-04-19T05:21:18;11.0;96.0
22676;DHT22;12521;43.310;21.876;2023-04-19T05:25:54;11.0;96.0
22676;DHT22;12521;43.310;21.876;2023-04-19T05:30:31;11.0;96.0
22676;DHT22;12521;43.310;21.876;2023-04-19T05:35:09;11.0;96.0
22676;DHT22;12521;43.310;21.876;2023-04-19T05:39:46;11.0;96.0
22676;DHT22;12521;43.310;21.876;2023-04-19T05:44:23;11.0;96.0
22676;DHT22;12521;43.310;21.876;2023-04-19T05:49:00;11.1;96.0
22676;DHT22;12521;43.310;21.876;2023-04-19T05:53:38;11.1;96.0
22676;DHT22;12521;43.310;21.876;2023-04-19T05:58:14;11.1;96.0
22676;DHT22;12521;43.310;21.876;2023-04-19T06:02:51;11.1;96.0
22676;DHT22;12521;43.310;21.876;2023-04-19T06:16:42;11.1;96.0
22676;DHT22;12521;43.310;21.876;2023-04-19T06:21:18;11.1;96.0
22676;DHT22;12521;43.310;21.876;2023-04-19T06:25:55;11.1;96.0
22676;DHT22;12521;43.310;21.876;2023-04-19T06:30:31;11.1;96.0
22676;DHT22;12521;43.310;21.876;2023-04-19T06:35:09;11.1;96.0
22676;DHT22;12521;43.310;21.876;2023-04-19T06:39:46;11.1;96.0
22676;DHT22;12521;43.310;21.876;2023-04-19T06:44:23;11.1;96.0
22676;DHT22;12521;43.310;21.876;2023-04-19T06:49:00;11.1;96.0
22676;DHT22;12521;43.310;21.876;2023-04-19T06:53:36;11.1;96.0
22676;DHT22;12521;43.310;21.876;2023-04-19T06:58:13;11.1;96.0
22676;DHT22;12521;43.310;21.876;2023-04-19T07:02:50;11.1;96.0
22676;DHT22;12521;43.310;21.876;2023-04-19T07:07:27;11.1;96.0
22676;DHT22;12521;43.310;21.876;2023-04-19T07:12:05;11.1;96.0
22676;DHT22;12521;43.310;21.876;2023-04-19T07:16:42;11.2;96.0
22676;DHT22;12521;43.310;21.876;2023-04-19T07:21:18;11.2;96.0
22676;DHT22;12521;43.310;21.876;2023-04-19T07:25:55;11.4;96.0
22676;DHT22;12521;43.310;21.876;2023-04-19T07:30:31;11.4;96.0
22676;DHT22;12521;43.310;21.876;2023-04-19T07:35:09;11.4;96.0
22676;DHT22;12521;43.310;21.876;2023-04-19T07:39:45;11.6;96.0
22676;DHT22;12521;43.310;21.876;2023-04-19T07:44:21;11.6;96.0
22676;DHT22;12521;43.310;21.876;2023-04-19T07:48:58;11.8;96.0
22676;DHT22;12521;43.310;21.876;2023-04-19T07:53:34;11.8;96.0
22676;DHT22;12521;43.310;21.876;2023-04-19T07:58:11;12.0;96.0
22676;DHT22;12521;43.310;21.876;2023-04-19T08:02:48;12.0;96.0
22676;DHT22;12521;43.310;21.876;2023-04-19T08:07:25;12.2;96.0
22676;DHT22;12521;43.310;21.876;2023-04-19T08:12:02;12.2;96.0
22676;DHT22;12521;43.310;21.876;2023-04-19T08:16:39;12.4;96.0
22676;DHT22;12521;43.310;21.876;2023-04-19T08:21:16;12.4;96.0
22676;DHT22;12521;43.310;21.876;2023-04-19T08:25:53;12.5;96.0
22676;DHT22;12521;43.310;21.876;2023-04-19T08:30:31;12.5;96.0
22676;DHT22;12521;43.310;21.876;2023-04-19T08:35:09;12.5;96.0
22676;DHT22;12521;43.310;21.876;2023-04-19T08:39:45;12.8;96.0
22676;DHT22;12521;43.310;21.876;2023-04-19T08:44:24;12.8;96.0
22676;DHT22;12521;43.310;21.876;2023-04-19T08:49:05;13.2;96.0
22676;DHT22;12521;43.310;21.876;2023-04-19T08:53:47;13.2;96.0
22676;DHT22;12521;43.310;21.876;2023-04-19T08:58:27;13.6;96.0
22676;DHT22;12521;43.310;21.876;2023-04-19T09:03:07;13.6;96.0
22676;DHT22;12521;43.310;21.876;2023-04-19T09:07:46;13.9;96.0
22676;DHT22;12521;43.310;21.876;2023-04-19T09:12:23;13.9;96.0
22676;DHT22;12521;43.310;21.876;2023-04-19T09:17:13;14.0;96.0
22676;DHT22;12521;43.310;21.876;2023-04-19T09:21:54;14.0;96.0
22676;DHT22;12521;43.310;21.876;2023-04-19T09:26:33;14.0;96.0
22676;DHT22;12521;43.310;21.876;2023-04-19T09:31:12;14.0;96.0
22676;DHT22;12521;43.310;21.876;2023-04-19T09:35:48;14.0;96.0
22676;DHT22;12521;43.310;21.876;2023-04-19T09:40:25;13.8;96.0
22676;DHT22;12521;43.310;21.876;2023-04-19T09:45:03;13.8;96.0
22676;DHT22;12521;43.310;21.876;2023-04-19T09:49:42;13.7;96.0
22676;DHT22;12521;43.310;21.876;2023-04-19T09:54:24;13.7;96.0
22676;DHT22;12521;43.310;21.876;2023-04-19T09:59:03;13.8;96.0
22676;DHT22;12521;43.310;21.876;2023-04-19T10:03:45;13.8;96.0
22676;DHT22;12521;43.310;21.876;2023-04-19T10:08:27;14.0;96.0
22676;DHT22;12521;43.310;21.876;2023-04-19T10:13:11;14.0;96.0
22676;DHT22;12521;43.310;21.876;2023-04-19T10:17:49;14.2;96.0
22676;DHT22;12521;43.310;21.876;2023-04-19T10:22:27;14.2;96.0
22676;DHT22;12521;43.310;21.876;2023-04-19T10:27:11;14.4;96.0
22676;DHT22;12521;43.310;21.876;2023-04-19T10:31:50;14.4;96.0
22676;DHT22;12521;43.310;21.876;2023-04-19T10:36:27;14.6;96.0
22676;DHT22;12521;43.310;21.876;2023-04-19T10:41:05;14.6;96.0
22676;DHT22;12521;43.310;21.876;2023-04-19T10:45:42;14.6;96.0
22676;DHT22;12521;43.310;21.876;2023-04-19T10:50:23;14.9;96.0
22676;DHT22;12521;43.310;21.876;2023-04-19T10:55:05;14.9;96.0
22676;DHT22;12521;43.310;21.876;2023-04-19T10:59:42;15.3;96.0
22676;DHT22;12521;43.310;21.876;2023-04-19T11:04:59;15.3;96.0
22676;DHT22;12521;43.310;21.876;2023-04-19T11:09:45;15.7;96.0
22676;DHT22;12521;43.310;21.876;2023-04-19T11:14:33;15.7;96.0
22676;DHT22;12521;43.310;21.876;2023-04-19T11:19:18;15.6;96.0
22676;DHT22;12521;43.310;21.876;2023-04-19T11:24:12;15.6;96.0
22676;DHT22;12521;43.310;21.876;2023-04-19T11:28:51;15.4;96.0
22676;DHT22;12521;43.310;21.876;2023-04-19T11:33:33;15.4;96.0
22676;DHT22;12521;43.310;21.876;2023-04-19T11:38:13;15.0;96.0
22676;DHT22;12521;43.310;21.876;2023-04-19T11:42:57;15.0;96.0
22676;DHT22;12521;43.310;21.876;2023-04-19T11:47:48;14.7;96.0
22676;DHT22;12521;43.310;21.876;2023-04-19T11:52:26;14.7;96.0
22676;DHT22;12521;43.310;21.876;2023-04-19T11:57:07;14.6;96.0
22676;DHT22;12521;43.310;21.876;2023-04-19T12:01:44;14.6;96.0
22676;DHT22;12521;43.310;21.876;2023-04-19T12:06:27;14.6;96.0
22676;DHT22;12521;43.310;21.876;2023-04-19T12:11:06;14.6;96.0
22676;DHT22;12521;43.310;21.876;2023-04-19T12:15:45;14.6;96.0
22676;DHT22;12521;43.310;21.876;2023-04-19T12:20:36;15.0;96.0
22676;DHT22;12521;43.310;21.876;2023-04-19T12:25:20;15.0;96.0
22676;DHT22;12521;43.310;21.876;2023-04-19T12:29:56;15.5;96.0
22676;DHT22;12521;43.310;21.876;2023-04-19T12:34:33;15.5;96.0
22676;DHT22;12521;43.310;21.876;2023-04-19T12:39:10;16.0;96.0
22676;DHT22;12521;43.310;21.876;2023-04-19T12:43:46;16.0;96.0
22676;DHT22;12521;43.310;21.876;2023-04-19T12:48:23;16.6;96.0
22676;DHT22;12521;43.310;21.876;2023-04-19T12:52:59;16.6;96.0
22676;DHT22;12521;43.310;21.876;2023-04-19T12:57:35;17.1;96.0
22676;DHT22;12521;43.310;21.876;2023-04-19T13:02:12;17.1;96.0
22676;DHT22;12521;43.310;21.876;2023-04-19T13:06:53;17.6;96.0
22676;DHT22;12521;43.310;21.876;2023-04-19T13:11:29;17.6;96.0
22676;DHT22;12521;43.310;21.876;2023-04-19T13:16:06;17.6;96.0
22676;DHT22;12521;43.310;21.876;2023-04-19T13:20:44;17.6;96.0
22676;DHT22;12521;43.310;21.876;2023-04-19T13:25:22;17.6;96.0
22676;DHT22;12521;43.310;21.876;2023-04-19T13:29:59;17.7;96.0
22676;DHT22;12521;43.310;21.876;2023-04-19T13:34:35;17.7;96.0
22676;DHT22;12521;43.310;21.876;2023-04-19T13:39:14;17.7;96.0
22676;DHT22;12521;43.310;21.876;2023-04-19T13:43:50;17.7;96.0
22676;DHT22;12521;43.310;21.876;2023-04-19T13:48:27;17.7;96.0
22676;DHT22;12521;43.310;21.876;2023-04-19T13:53:04;17.7;96.0
22676;DHT22;12521;43.310;21.876;2023-04-19T13:57:42;17.4;96.0
22676;DHT22;12521;43.310;21.876;2023-04-19T14:02:19;17.4;96.0
22676;DHT22;12521;43.310;21.876;2023-04-19T14:06:56;17.0;96.0
22676;DHT22;12521;43.310;21.876;2023-04-19T14:11:33;17.0;96.0
22676;DHT22;12521;43.310;21.876;2023-04-19T14:16:10;17.0;96.0
22676;DHT22;12521;43.310;21.876;2023-04-19T14:20:47;16.8;96.0
22676;DHT22;12521;43.310;21.876;2023-04-19T14:25:25;16.8;96.0
22676;DHT22;12521;43.310;21.876;2023-04-19T14:30:02;16.7;96.0
22676;DHT22;12521;43.310;21.876;2023-04-19T14:34:41;16.7;96.0
22676;DHT22;12521;43.310;21.876;2023-04-19T14:39:17;16.6;96.0
22676;DHT22;12521;43.310;21.876;2023-04-19T14:43:54;16.6;96.0
22676;DHT22;12521;43.310;21.876;2023-04-19T14:48:31;16.6;96.0
22676;DHT22;12521;43.310;21.876;2023-04-19T14:53:08;16.6;96.0
22676;DHT22;12521;43.310;21.876;2023-04-19T14:57:45;17.1;96.0
22676;DHT22;12521;43.310;21.876;2023-04-19T15:02:21;17.1;96.0
22676;DHT22;12521;43.310;21.876;2023-04-19T15:06:58;17.6;96.0
22676;DHT22;12521;43.310;21.876;2023-04-19T15:11:35;17.6;96.0
22676;DHT22;12521;43.310;21.876;2023-04-19T15:16:12;17.6;96.0
22676;DHT22;12521;43.310;21.876;2023-04-19T15:20:48;17.9;95.0
22676;DHT22;12521;43.310;21.876;2023-04-19T15:25:26;17.9;95.0
22676;DHT22;12521;43.310;21.876;2023-04-19T15:30:05;18.2;95.0
22676;DHT22;12521;43.310;21.876;2023-04-19T15:34:43;18.2;95.0
22676;DHT22;12521;43.310;21.876;2023-04-19T15:39:19;17.8;95.0
22676;DHT22;12521;43.310;21.876;2023-04-19T15:43:56;17.8;95.0
22676;DHT22;12521;43.310;21.876;2023-04-19T15:48:33;17.4;95.0
22676;DHT22;12521;43.310;21.876;2023-04-19T15:53:09;17.4;95.0
22676;DHT22;12521;43.310;21.876;2023-04-19T15:57:45;18.0;95.0
22676;DHT22;12521;43.310;21.876;2023-04-19T16:02:22;18.0;95.0
22676;DHT22;12521;43.310;21.876;2023-04-19T16:06:59;18.5;94.0
22676;DHT22;12521;43.310;21.876;2023-04-19T16:11:35;18.5;94.0
22676;DHT22;12521;43.310;21.876;2023-04-19T16:16:12;18.5;94.0
22676;DHT22;12521;43.310;21.876;2023-04-19T16:20:48;18.4;93.0
22676;DHT22;12521;43.310;21.876;2023-04-19T16:25:30;18.4;93.0
22676;DHT22;12521;43.310;21.876;2023-04-19T16:30:12;18.3;91.0
22676;DHT22;12521;43.310;21.876;2023-04-19T16:34:51;18.3;91.0
22676;DHT22;12521;43.310;21.876;2023-04-19T16:39:28;17.2;93.0
22676;DHT22;12521;43.310;21.876;2023-04-19T16:44:05;17.2;93.0
22676;DHT22;12521;43.310;21.876;2023-04-19T16:48:42;16.2;95.0
22676;DHT22;12521;43.310;21.876;2023-04-19T16:53:19;16.2;95.0
22676;DHT22;12521;43.310;21.876;2023-04-19T16:57:56;15.8;96.0
22676;DHT22;12521;43.310;21.876;2023-04-19T17:02:32;15.8;96.0
22676;DHT22;12521;43.310;21.876;2023-04-19T17:07:09;15.5;96.0
22676;DHT22;12521;43.310;21.876;2023-04-19T17:11:46;15.5;96.0
22676;DHT22;12521;43.310;21.876;2023-04-19T17:16:22;15.5;96.0
22676;DHT22;12521;43.310;21.876;2023-04-19T17:20:59;15.2;96.0
22676;DHT22;12521;43.310;21.876;2023-04-19T17:25:36;15.2;96.0
22676;DHT22;12521;43.310;21.876;2023-04-19T17:30:13;15.0;96.0
22676;DHT22;12521;43.310;21.876;2023-04-19T17:34:50;15.0;96.0
22676;DHT22;12521;43.310;21.876;2023-04-19T17:39:27;14.8;96.0
22676;DHT22;12521;43.310;21.876;2023-04-19T17:44:04;14.8;96.0
22676;DHT22;12521;43.310;21.876;2023-04-19T17:48:41;14.6;96.0
22676;DHT22;12521;43.310;21.876;2023-04-19T17:53:17;14.6;96.0
22676;DHT22;12521;43.310;21.876;2023-04-19T17:57:53;14.5;96.0
22676;DHT22;12521;43.310;21.876;2023-04-19T18:02:30;14.5;96.0
22676;DHT22;12521;43.310;21.876;2023-04-19T18:07:07;14.4;96.0
22676;DHT22;12521;43.310;21.876;2023-04-19T18:11:44;14.4;96.0
22676;DHT22;12521;43.310;21.876;2023-04-19T18:16:20;14.4;96.0
22676;DHT22;12521;43.310;21.876;2023-04-19T18:20:57;14.2;96.0
22676;DHT22;12521;43.310;21.876;2023-04-19T18:25:33;14.2;96.0
22676;DHT22;12521;43.310;21.876;2023-04-19T18:30:11;14.1;96.0
22676;DHT22;12521;43.310;21.876;2023-04-19T18:34:48;14.1;96.0
22676;DHT22;12521;43.310;21.876;2023-04-19T18:39:24;14.0;96.0
22676;DHT22;12521;43.310;21.876;2023-04-19T18:44:01;14.0;96.0
22676;DHT22;12521;43.310;21.876;2023-04-19T18:48:38;14.0;96.0
22676;DHT22;12521;43.310;21.876;2023-04-19T18:53:14;14.0;96.0
22676;DHT22;12521;43.310;21.876;2023-04-19T18:57:51;13.8;96.0
22676;DHT22;12521;43.310;21.876;2023-04-19T19:02:27;13.8;96.0
22676;DHT22;12521;43.310;21.876;2023-04-19T19:07:04;13.6;96.0
22676;DHT22;12521;43.310;21.876;2023-04-19T19:11:41;13.6;96.0
22676;DHT22;12521;43.310;21.876;2023-04-19T19:16:18;13.6;96.0
22676;DHT22;12521;43.310;21.876;2023-04-19T19:20:58;13.4;96.0
22676;DHT22;12521;43.310;21.876;2023-04-19T19:25:35;13.4;96.0
22676;DHT22;12521;43.310;21.876;2023-04-19T19:30:14;13.3;96.0
22676;DHT22;12521;43.310;21.876;2023-04-19T19:34:50;13.3;96.0
22676;DHT22;12521;43.310;21.876;2023-04-19T19:39:27;13.2;96.0
22676;DHT22;12521;43.310;21.876;2023-04-19T19:44:04;13.2;96.0
22676;DHT22;12521;43.310;21.876;2023-04-19T19:48:40;13.2;96.0
22676;DHT22;12521;43.310;21.876;2023-04-19T19:53:17;13.2;96.0
22676;DHT22;12521;43.310;21.876;2023-04-19T19:57:54;13.2;96.0
22676;DHT22;12521;43.310;21.876;2023-04-19T20:02:31;13.2;96.0
22676;DHT22;12521;43.310;21.876;2023-04-19T20:07:11;13.3;96.0
22676;DHT22;12521;43.310;21.876;2023-04-19T20:11:47;13.3;96.0
22676;DHT22;12521;43.310;21.876;2023-04-19T20:16:24;13.3;96.0
22676;DHT22;12521;43.310;21.876;2023-04-19T20:21:00;13.3;96.0
22676;DHT22;12521;43.310;21.876;2023-04-19T20:25:37;13.3;96.0
22676;DHT22;12521;43.310;21.876;2023-04-19T20:30:14;13.3;96.0
22676;DHT22;12521;43.310;21.876;2023-04-19T20:34:50;13.3;96.0
22676;DHT22;12521;43.310;21.876;2023-04-19T20:39:27;13.2;96.0
22676;DHT22;12521;43.310;21.876;2023-04-19T20:44:04;13.2;96.0
22676;DHT22;12521;43.310;21.876;2023-04-19T20:48:41;13.2;96.0
22676;DHT22;12521;43.310;21.876;2023-04-19T20:53:17;13.2;96.0
22676;DHT22;12521;43.310;21.876;2023-04-19T20:57:53;13.0;96.0
22676;DHT22;12521;43.310;21.876;2023-04-19T21:02:30;13.0;96.0
22676;DHT22;12521;43.310;21.876;2023-04-19T21:07:06;12.9;96.0
22676;DHT22;12521;43.310;21.876;2023-04-19T21:11:43;12.9;96.0
22676;DHT22;12521;43.310;21.876;2023-04-19T21:16:19;12.9;96.0
22676;DHT22;12521;43.310;21.876;2023-04-19T21:20:56;12.8;96.0
22676;DHT22;12521;43.310;21.876;2023-04-19T21:25:34;12.8;96.0
22676;DHT22;12521;43.310;21.876;2023-04-19T21:30:12;12.8;96.0
22676;DHT22;12521;43.310;21.876;2023-04-19T21:34:49;12.8;96.0
22676;DHT22;12521;43.310;21.876;2023-04-19T21:39:26;12.7;96.0
22676;DHT22;12521;43.310;21.876;2023-04-19T21:44:03;12.7;96.0
22676;DHT22;12521;43.310;21.876;2023-04-19T21:48:41;12.6;96.0
22676;DHT22;12521;43.310;21.876;2023-04-19T21:53:18;12.6;96.0
22676;DHT22;12521;43.310;21.876;2023-04-19T21:57:55;12.6;96.0
22676;DHT22;12521;43.310;21.876;2023-04-19T22:02:32;12.6;96.0
22676;DHT22;12521;43.310;21.876;2023-04-19T22:07:09;12.6;96.0
22676;DHT22;12521;43.310;21.876;2023-04-19T22:11:47;12.6;96.0
22676;DHT22;12521;43.310;21.876;2023-04-19T22:16:24;12.6;96.0
22676;DHT22;12521;43.310;21.876;2023-04-19T22:21:01;12.6;96.0
22676;DHT22;12521;43.310;21.876;2023-04-19T22:25:38;12.6;96.0
22676;DHT22;12521;43.310;21.876;2023-04-19T22:30:15;12.6;96.0
22676;DHT22;12521;43.310;21.876;2023-04-19T22:34:51;12.6;96.0
22676;DHT22;12521;43.310;21.876;2023-04-19T22:39:27;12.5;96.0
22676;DHT22;12521;43.310;21.876;2023-04-19T22:44:04;12.5;96.0
22676;DHT22;12521;43.310;21.876;2023-04-19T22:48:41;12.4;96.0
22676;DHT22;12521;43.310;21.876;2023-04-19T22:53:18;12.4;96.0
22676;DHT22;12521;43.310;21.876;2023-04-19T22:57:54;12.4;96.0
22676;DHT22;12521;43.310;21.876;2023-04-19T23:02:31;12.4;96.0
22676;DHT22;12521;43.310;21.876;2023-04-19T23:07:07;12.4;96.0
22676;DHT22;12521;43.310;21.876;2023-04-19T23:11:44;12.4;96.0
22676;DHT22;12521;43.310;21.876;2023-04-19T23:16:23;12.4;96.0
22676;DHT22;12521;43.310;21.876;2023-04-19T23:21:00;12.4;96.0
22676;DHT22;12521;43.310;21.876;2023-04-19T23:25:37;12.4;96.0
22676;DHT22;12521;43.310;21.876;2023-04-19T23:30:15;12.3;96.0
22676;DHT22;12521;43.310;21.876;2023-04-19T23:34:52;12.3;96.0
22676;DHT22;12521;43.310;21.876;2023-04-19T23:39:29;12.3;96.0
22676;DHT22;12521;43.310;21.876;2023-04-19T23:44:05;12.3;96.0
22676;DHT22;12521;43.310;21.876;2023-04-19T23:48:41;12.3;96.0
22676;DHT22;12521;43.310;21.876;2023-04-19T23:53:17;12.3;96.0
22676;DHT22;12521;43.310;21.876;2023-04-19T23:57:54;12.2;96.0
